createdAt,value
2017-10-31T00:00:35.872Z,96.00
2017-10-31T00:03:04.009Z,96.00
2017-10-31T00:05:32.728Z,96.10
2017-10-31T00:08:00.876Z,95.90
2017-10-31T00:10:32.819Z,96.10
2017-10-31T00:13:00.992Z,95.90
2017-10-31T00:15:32.327Z,95.70
2017-10-31T00:18:00.552Z,95.50
2017-10-31T00:20:29.443Z,95.30
2017-10-31T00:22:57.601Z,95.30
2017-10-31T00:25:26.677Z,95.60
2017-10-31T00:27:55.866Z,95.10
2017-10-31T00:30:24.741Z,94.90
2017-10-31T00:32:53.556Z,95.30
2017-10-31T00:35:21.697Z,95.30
2017-10-31T00:37:50.856Z,95.00
2017-10-31T00:40:19.008Z,95.10
2017-10-31T00:42:47.151Z,95.00
2017-10-31T00:45:15.267Z,95.00
2017-10-31T00:47:43.357Z,94.90
2017-10-31T00:50:11.456Z,95.20
2017-10-31T00:52:39.577Z,95.30
2017-10-31T00:55:07.919Z,95.10
2017-10-31T00:57:36.069Z,95.10
2017-10-31T01:00:04.640Z,95.20
2017-10-31T01:02:32.757Z,95.30
2017-10-31T01:05:00.904Z,95.20
2017-10-31T01:07:29.019Z,95.30
2017-10-31T01:09:57.147Z,95.30
2017-10-31T01:12:25.229Z,95.60
2017-10-31T01:14:53.324Z,95.70
2017-10-31T01:17:21.596Z,95.40
2017-10-31T01:19:49.911Z,95.60
2017-10-31T01:22:19.855Z,96.00
2017-10-31T01:24:48.727Z,95.50
2017-10-31T01:27:16.901Z,95.50
2017-10-31T01:29:45.010Z,95.60
2017-10-31T01:32:13.169Z,95.50
2017-10-31T01:34:41.284Z,95.40
2017-10-31T01:37:09.412Z,95.20
2017-10-31T01:39:37.511Z,95.40
2017-10-31T01:42:05.616Z,95.40
2017-10-31T01:44:33.764Z,95.50
2017-10-31T01:47:01.892Z,95.40
2017-10-31T01:49:30.067Z,95.50
2017-10-31T01:51:58.250Z,95.50
2017-10-31T01:54:27.304Z,95.90
2017-10-31T01:56:55.449Z,95.90
2017-10-31T01:59:23.595Z,95.70
2017-10-31T02:01:52.459Z,95.80
2017-10-31T02:04:21.672Z,95.80
2017-10-31T02:06:49.786Z,95.70
2017-10-31T02:09:18.056Z,95.70
2017-10-31T02:11:46.235Z,95.70
2017-10-31T02:14:14.380Z,95.70
2017-10-31T02:16:44.530Z,96.00
2017-10-31T02:19:12.641Z,96.00
2017-10-31T02:21:40.758Z,95.50
2017-10-31T02:24:08.966Z,95.60
2017-10-31T02:26:37.497Z,95.50
2017-10-31T02:29:05.633Z,95.70
2017-10-31T02:31:33.736Z,95.80
2017-10-31T02:34:04.024Z,95.90
2017-10-31T02:36:32.959Z,95.60
2017-10-31T02:39:18.782Z,95.80
2017-10-31T02:41:46.883Z,95.40
2017-10-31T02:44:17.113Z,95.40
2017-10-31T02:46:45.429Z,95.50
2017-10-31T02:49:13.537Z,95.40
2017-10-31T02:51:41.656Z,95.40
2017-10-31T02:54:09.800Z,95.60
2017-10-31T02:56:37.868Z,95.30
2017-10-31T02:59:06.146Z,95.70
2017-10-31T03:01:35.294Z,95.60
2017-10-31T03:04:04.278Z,95.80
2017-10-31T03:06:32.430Z,95.80
2017-10-31T03:09:02.021Z,95.70
2017-10-31T03:11:30.128Z,95.80
2017-10-31T03:14:00.048Z,95.70
2017-10-31T03:16:29.238Z,95.70
2017-10-31T03:18:58.544Z,95.60
2017-10-31T03:21:27.410Z,95.90
2017-10-31T03:23:55.657Z,95.80
2017-10-31T03:26:27.001Z,95.60
2017-10-31T03:28:55.208Z,95.60
2017-10-31T03:31:23.373Z,95.60
2017-10-31T03:33:51.461Z,96.20
2017-10-31T03:36:19.615Z,95.90
2017-10-31T09:10:55.706Z,95.20
2017-10-31T09:13:25.579Z,95.20
2017-10-31T09:15:56.577Z,95.10
2017-10-31T09:18:33.518Z,95.20
2017-10-31T09:21:13.764Z,95.10
2017-10-31T09:23:42.981Z,94.90
2017-10-31T09:26:12.249Z,94.60
2017-10-31T09:28:41.414Z,94.60
2017-10-31T09:31:11.595Z,95.00
2017-10-31T09:33:40.529Z,94.90
2017-10-31T09:36:09.761Z,94.70
2017-10-31T09:38:38.148Z,94.70
2017-10-31T09:41:06.453Z,94.90
2017-10-31T09:43:38.506Z,95.00
2017-10-31T09:46:10.244Z,95.00
2017-10-31T09:48:39.459Z,95.10
2017-10-31T09:51:10.808Z,94.80
2017-10-31T09:53:39.302Z,94.60
2017-10-31T09:56:07.566Z,94.70
2017-10-31T09:58:38.443Z,94.50
2017-10-31T10:01:06.669Z,94.60
2017-10-31T10:03:34.829Z,94.40
2017-10-31T10:06:04.356Z,94.30
2017-10-31T10:08:32.521Z,94.40
2017-10-31T10:11:00.714Z,94.20
2017-10-31T10:13:32.561Z,94.00
2017-10-31T10:16:00.750Z,94.10
2017-10-31T10:18:29.893Z,93.80
2017-10-31T10:20:59.654Z,94.00
2017-10-31T10:23:29.757Z,93.60
2017-10-31T10:26:13.791Z,93.10
2017-10-31T10:28:44.498Z,92.90
2017-10-31T10:33:57.147Z,92.70
2017-10-31T10:36:30.452Z,92.80
2017-10-31T10:47:58.724Z,92.00
2017-10-31T10:50:28.237Z,91.40
2017-10-31T10:52:58.638Z,91.50
2017-10-31T10:55:29.213Z,91.40
2017-10-31T10:58:01.017Z,91.20
2017-10-31T11:00:44.144Z,91.30
2017-10-31T11:03:22.812Z,91.30
2017-10-31T11:05:59.832Z,90.30
2017-10-31T11:11:32.099Z,90.40
2017-10-31T11:14:00.349Z,90.60
2017-10-31T11:16:28.629Z,90.10
2017-10-31T11:19:07.169Z,90.10
2017-10-31T11:21:37.433Z,89.80
2017-10-31T11:24:05.710Z,89.80
2017-10-31T11:26:34.167Z,90.10
2017-10-31T11:29:03.508Z,89.60
2017-10-31T11:31:31.863Z,88.60
2017-10-31T11:34:00.785Z,88.80
2017-10-31T11:36:29.262Z,88.90
2017-10-31T11:38:57.513Z,88.40
2017-10-31T11:41:26.642Z,87.60
2017-10-31T11:43:58.693Z,88.10
2017-10-31T11:46:31.984Z,88.60
2017-10-31T11:49:00.342Z,88.60
2017-10-31T11:51:29.602Z,88.10
2017-10-31T11:53:57.818Z,87.60
2017-10-31T11:56:27.788Z,87.50
2017-10-31T11:58:55.900Z,87.50
2017-10-31T12:01:24.802Z,86.20
2017-10-31T12:03:54.359Z,86.30
2017-10-31T12:06:22.512Z,86.60
2017-10-31T12:08:52.414Z,86.60
2017-10-31T12:11:21.965Z,86.60
2017-10-31T12:13:51.016Z,86.30
2017-10-31T12:16:19.215Z,86.50
2017-10-31T12:18:47.366Z,86.30
2017-10-31T12:21:16.111Z,85.50
2017-10-31T12:23:44.237Z,84.80
2017-10-31T12:26:12.593Z,86.00
2017-10-31T12:28:41.586Z,86.00
2017-10-31T12:31:09.731Z,84.20
2017-10-31T12:33:41.517Z,85.50
2017-10-31T12:36:11.015Z,85.40
2017-10-31T12:38:39.161Z,84.80
2017-10-31T12:41:07.265Z,85.10
2017-10-31T12:43:35.623Z,84.70
2017-10-31T12:46:04.656Z,85.60
2017-10-31T12:48:32.765Z,85.50
2017-10-31T12:51:00.941Z,85.50
2017-10-31T12:53:29.075Z,84.80
2017-10-31T12:55:58.358Z,84.60
2017-10-31T12:58:26.541Z,84.40
2017-10-31T13:00:54.752Z,84.90
2017-10-31T13:03:23.092Z,85.00
2017-10-31T13:05:51.309Z,84.50
2017-10-31T13:08:19.483Z,84.90
2017-10-31T13:10:47.628Z,85.30
2017-10-31T13:13:15.786Z,86.10
2017-10-31T13:15:44.713Z,85.00
2017-10-31T13:18:12.849Z,86.40
2017-10-31T13:20:41.010Z,84.90
2017-10-31T13:23:09.280Z,85.70
2017-10-31T13:25:38.537Z,84.70
2017-10-31T13:28:07.118Z,84.90
2017-10-31T13:30:35.639Z,84.70
2017-10-31T13:33:04.320Z,83.90
2017-10-31T13:35:32.927Z,84.80
2017-10-31T13:38:02.488Z,85.40
2017-10-31T13:40:32.234Z,85.50
2017-10-31T13:43:01.625Z,86.30
2017-10-31T13:45:29.834Z,86.30
2017-10-31T13:47:59.431Z,86.00
2017-10-31T13:50:27.755Z,86.00
2017-10-31T13:52:56.249Z,85.40
2017-10-31T13:55:24.584Z,85.60
2017-10-31T13:57:54.620Z,85.10
2017-10-31T14:00:23.359Z,85.50
2017-10-31T14:02:53.033Z,85.50
2017-10-31T14:05:23.716Z,84.90
2017-10-31T14:07:53.381Z,85.20
2017-10-31T14:10:23.456Z,85.30
2017-10-31T14:12:55.564Z,85.40
2017-10-31T14:18:44.604Z,85.90
2017-10-31T14:21:14.543Z,85.70
2017-10-31T14:24:03.903Z,86.10
2017-10-31T14:26:52.462Z,86.00
2017-10-31T14:29:20.587Z,85.90
2017-10-31T14:31:48.838Z,85.80
2017-10-31T14:34:17.178Z,85.60
2017-10-31T14:36:46.338Z,86.80
2017-10-31T14:39:15.460Z,87.20
2017-10-31T14:41:43.965Z,87.30
2017-10-31T14:44:12.083Z,87.10
2017-10-31T14:46:41.024Z,87.60
2017-10-31T14:49:09.134Z,87.20
2017-10-31T14:51:37.324Z,86.80
2017-10-31T14:54:06.430Z,86.60
2017-10-31T14:56:35.516Z,86.60
2017-10-31T14:59:04.760Z,86.50
2017-10-31T15:01:35.145Z,86.50
2017-10-31T15:04:04.179Z,86.10
2017-10-31T15:06:33.337Z,86.10
2017-10-31T15:09:03.128Z,86.70
2017-10-31T15:11:31.316Z,86.70
2017-10-31T15:14:00.197Z,87.10
2017-10-31T15:16:28.270Z,88.10
2017-10-31T15:18:57.669Z,87.90
2017-10-31T15:21:26.284Z,88.90
2017-10-31T15:23:54.379Z,88.90
2017-10-31T15:26:22.555Z,88.70
2017-10-31T15:28:50.645Z,88.60
2017-10-31T15:31:18.902Z,88.10
2017-10-31T15:33:47.104Z,88.00
2017-10-31T15:36:16.530Z,88.80
2017-10-31T15:38:44.805Z,89.10
2017-10-31T15:41:17.868Z,89.00
2017-10-31T15:43:53.464Z,89.20
2017-10-31T15:46:26.339Z,89.70
2017-10-31T15:48:54.873Z,89.70
2017-10-31T15:51:23.281Z,90.20
2017-10-31T15:53:53.956Z,89.60
2017-10-31T15:56:22.180Z,90.00
2017-10-31T15:58:50.348Z,90.20
2017-10-31T16:01:18.809Z,90.00
2017-10-31T16:03:46.916Z,89.80
2017-10-31T16:06:15.036Z,89.40
2017-10-31T16:08:44.172Z,88.10
2017-10-31T16:11:24.754Z,89.20
2017-10-31T16:13:53.024Z,89.30
2017-10-31T16:16:21.311Z,88.20
2017-10-31T16:18:49.711Z,88.00
2017-10-31T16:30:25.689Z,88.20
2017-10-31T16:33:11.560Z,87.50
2017-10-31T16:41:30.546Z,88.40
2017-10-31T16:44:02.620Z,87.60
2017-10-31T16:46:31.593Z,87.20
2017-10-31T16:48:59.691Z,87.40
2017-10-31T16:51:27.776Z,87.00
2017-10-31T16:53:56.662Z,88.30
2017-10-31T16:56:24.748Z,88.30
2017-10-31T16:58:53.659Z,90.20
2017-10-31T17:01:21.768Z,90.20
2017-10-31T17:03:49.883Z,90.10
2017-10-31T17:07:53.657Z,89.70
2017-10-31T17:10:21.748Z,90.30
2017-10-31T17:12:49.870Z,90.30
2017-10-31T17:15:17.980Z,89.80
2017-10-31T17:17:46.183Z,90.30
2017-10-31T17:20:14.472Z,90.50
2017-10-31T17:22:42.571Z,90.60
2017-10-31T17:25:10.680Z,90.40
2017-10-31T17:27:38.782Z,90.80
2017-10-31T17:30:07.156Z,90.90
2017-10-31T17:32:35.352Z,90.60
2017-10-31T17:35:03.564Z,90.80
2017-10-31T17:37:31.689Z,90.80
2017-10-31T17:40:00.882Z,90.90
2017-10-31T17:42:29.791Z,90.60
2017-10-31T17:44:57.948Z,90.50
2017-10-31T17:47:26.832Z,90.90
2017-10-31T17:49:55.739Z,91.00
2017-10-31T17:52:23.825Z,90.90
2017-10-31T17:54:53.847Z,90.80
2017-10-31T17:57:22.137Z,91.00
2017-10-31T17:59:51.146Z,90.80
2017-10-31T18:02:20.274Z,90.90
2017-10-31T18:04:49.456Z,90.70
2017-10-31T18:07:17.588Z,90.70
2017-10-31T18:09:45.699Z,90.90
2017-10-31T18:12:13.844Z,90.70
2017-10-31T18:14:41.986Z,90.60
2017-10-31T18:17:10.657Z,90.80
2017-10-31T18:19:39.749Z,90.20
2017-10-31T18:22:08.044Z,90.20
2017-10-31T18:24:38.703Z,89.70
2017-10-31T18:27:10.612Z,90.00
2017-10-31T18:29:43.293Z,90.20
2017-10-31T18:32:13.124Z,90.40
2017-10-31T18:34:44.259Z,89.10
2017-10-31T18:37:14.292Z,89.90
2017-10-31T18:39:42.500Z,89.90
2017-10-31T18:42:12.708Z,89.90
2017-10-31T18:44:40.819Z,89.80
2017-10-31T18:47:09.868Z,89.30
2017-10-31T18:49:38.968Z,88.20
2017-10-31T18:52:07.073Z,89.00
2017-10-31T18:54:35.207Z,88.90
2017-10-31T18:57:04.121Z,89.10
2017-10-31T18:59:32.520Z,89.80
2017-10-31T19:02:00.792Z,89.40
2017-10-31T19:04:29.955Z,89.00
2017-10-31T19:07:01.175Z,89.40
2017-10-31T19:09:29.521Z,90.00
2017-10-31T19:12:00.662Z,89.80
2017-10-31T19:14:28.800Z,89.50
2017-10-31T19:16:58.557Z,88.80
2017-10-31T19:19:28.728Z,88.60
2017-10-31T19:21:58.078Z,87.90
2017-10-31T19:24:26.714Z,88.70
2017-10-31T19:26:56.156Z,88.80
2017-10-31T19:29:26.135Z,87.10
2017-10-31T19:31:55.036Z,87.60
2017-10-31T19:34:25.917Z,87.30
2017-10-31T19:36:55.585Z,87.20
2017-10-31T19:39:23.814Z,88.10
2017-10-31T19:41:56.647Z,88.10
2017-10-31T19:44:24.802Z,89.50
2017-10-31T19:46:53.039Z,88.90
2017-10-31T19:49:22.636Z,88.40
2017-10-31T19:58:34.493Z,90.20
2017-10-31T20:01:03.375Z,91.40
2017-10-31T20:03:32.674Z,91.40
2017-10-31T20:06:00.822Z,91.10
2017-10-31T20:08:28.942Z,91.10
2017-10-31T20:10:58.248Z,91.20
2017-10-31T20:13:28.217Z,91.40
2017-10-31T20:15:57.225Z,91.40
2017-10-31T20:18:25.836Z,90.90
2017-10-31T20:20:54.072Z,91.00
2017-10-31T20:23:22.223Z,91.00
2017-10-31T20:25:50.412Z,91.00
2017-10-31T20:28:18.591Z,91.80
2017-10-31T20:30:47.284Z,92.00
2017-10-31T20:33:15.420Z,91.90
2017-10-31T20:35:44.549Z,91.90
2017-10-31T20:38:12.666Z,92.30
2017-10-31T20:40:41.520Z,92.30
2017-10-31T20:43:09.653Z,92.30
2017-10-31T20:45:37.747Z,92.70
2017-10-31T20:48:05.911Z,92.30
2017-10-31T20:50:34.024Z,93.10
2017-10-31T20:53:02.131Z,92.90
2017-10-31T20:55:30.247Z,92.90
2017-10-31T20:57:58.424Z,93.10
2017-10-31T21:00:26.532Z,93.50
2017-10-31T21:02:54.854Z,93.90
2017-10-31T21:05:22.979Z,93.40
2017-10-31T21:07:52.647Z,93.70
2017-10-31T21:10:20.777Z,93.20
2017-10-31T21:12:49.808Z,92.70
2017-10-31T21:15:17.912Z,92.90
2017-10-31T21:17:46.011Z,92.50
2017-10-31T21:20:14.160Z,93.30
2017-10-31T21:22:42.556Z,93.40
2017-10-31T21:25:11.507Z,93.50
2017-10-31T21:27:39.611Z,93.50
2017-10-31T21:30:07.683Z,92.50
2017-10-31T21:32:36.602Z,93.00
2017-10-31T21:35:04.693Z,93.00
2017-10-31T21:37:32.835Z,92.90
2017-10-31T21:40:01.044Z,93.20
2017-10-31T21:42:29.121Z,93.20
2017-10-31T21:44:57.311Z,92.70
2017-10-31T21:47:27.464Z,92.90
2017-10-31T21:49:57.409Z,92.10
2017-10-31T21:52:25.560Z,92.10
2017-10-31T21:54:53.695Z,92.00
2017-10-31T21:57:21.973Z,92.20
2017-10-31T21:59:50.081Z,91.80
2017-10-31T22:02:19.199Z,92.30
2017-10-31T22:04:47.332Z,92.30
2017-10-31T22:07:15.800Z,91.80
2017-10-31T22:09:43.961Z,92.20
2017-10-31T22:12:13.395Z,92.50
2017-10-31T22:14:41.619Z,92.40
2017-10-31T22:17:10.737Z,92.60
2017-10-31T22:19:38.895Z,92.90
2017-10-31T22:22:07.044Z,92.90
2017-10-31T22:27:10.064Z,93.00
2017-10-31T22:29:38.401Z,92.00
2017-10-31T22:32:06.529Z,92.00
2017-10-31T22:34:35.617Z,92.00
2017-10-31T22:37:03.739Z,92.20
2017-10-31T22:39:32.757Z,92.60
2017-10-31T22:42:02.134Z,92.60
2017-10-31T22:44:30.257Z,93.10
2017-10-31T22:46:58.456Z,93.40
2017-10-31T22:49:26.548Z,93.10
2017-10-31T22:51:54.665Z,93.20
2017-10-31T22:54:22.801Z,93.00
2017-10-31T22:56:50.918Z,93.20
2017-10-31T22:59:19.068Z,93.30
2017-10-31T23:01:47.253Z,93.60
2017-10-31T23:04:15.361Z,93.70
2017-10-31T23:06:44.397Z,93.60
2017-10-31T23:09:12.897Z,93.40
2017-10-31T23:11:41.099Z,93.50
2017-10-31T23:14:10.185Z,94.40
2017-10-31T23:16:38.368Z,94.60
2017-10-31T23:19:06.672Z,94.60
2017-10-31T23:21:34.803Z,94.90
2017-10-31T23:24:03.880Z,95.00
2017-10-31T23:26:32.902Z,95.10
2017-10-31T23:29:02.155Z,95.20
2017-10-31T23:31:30.247Z,95.30
2017-10-31T23:34:01.790Z,95.00
2017-10-31T23:36:29.934Z,94.30
2017-10-31T23:38:58.034Z,94.50
2017-10-31T23:41:26.657Z,94.90
2017-10-31T23:43:55.716Z,94.70
2017-10-31T23:46:24.593Z,94.60
2017-10-31T23:48:52.737Z,94.60
2017-10-31T23:51:20.852Z,94.80
2017-10-31T23:53:48.969Z,94.30
2017-10-31T23:56:22.569Z,94.40
2017-10-31T23:58:51.719Z,93.80
